Time;durP1;ratioP1;P1;durP2;ratioP2;P2;SDS_P1;SDS_P2;PMS_P1;PMS_P2;Temp;Humidity;BMP_temperature;BMP_pressure;BME280_temperature;BME280_humidity;BME280_pressure;Samples;Min_cycle;Max_cycle;Signal;HPM_P1;HPM_P2
2022/06/25 00:02:08;;;;;;;5.00;4.50;;;20.40;94.90;;;20.76;61.78;94795.25;5122610;28;20728;-52
2022/06/25 00:07:33;;;;;;;13.00;4.70;;;20.30;94.90;;;20.63;62.05;94792.53;5038929;28;20669;-56
2022/06/25 00:10:00;;;;;;;5.13;4.63;;;20.20;95.00;;;20.57;62.12;94788.84;5103458;28;21027;-55
2022/06/25 00:12:33;;;;;;;5.83;4.43;;;20.20;95.20;;;20.53;62.40;94784.09;5127099;28;20455;-55
2022/06/25 00:15:01;;;;;;;5.93;5.10;;;20.10;95.30;;;20.48;62.55;94783.88;5123077;28;21109;-54
2022/06/25 00:17:28;;;;;;;6.10;5.50;;;20.00;95.40;;;20.44;62.42;94775.44;5125255;28;20475;-56
2022/06/25 00:19:56;;;;;;;5.77;5.27;;;20.00;95.50;;;20.40;62.36;94772.38;5127069;28;20949;-55
2022/06/25 00:22:23;;;;;;;5.80;5.10;;;20.00;95.40;;;20.37;63.09;94777.28;5126545;28;20971;-54
2022/06/25 00:24:51;;;;;;;5.80;4.10;;;19.90;95.70;;;20.36;62.95;94789.00;5126793;28;20472;-56
2022/06/25 00:27:19;;;;;;;9.10;5.13;;;19.90;96.00;;;20.36;63.27;94787.16;5126972;28;20509;-57
2022/06/25 00:29:46;;;;;;;4.77;4.43;;;19.90;96.20;;;20.36;63.57;94781.81;5123464;28;20455;-56
2022/06/25 00:32:13;;;;;;;5.47;4.37;;;19.90;96.40;;;20.37;63.39;94793.31;5126599;28;20464;-55
2022/06/25 00:34:41;;;;;;;5.43;4.93;;;19.90;96.40;;;20.36;63.28;94789.81;5127247;28;20773;-56
2022/06/25 00:37:08;;;;;;;4.57;4.27;;;19.90;96.60;;;20.38;63.35;94784.28;5126825;28;20488;-56
2022/06/25 00:39:35;;;;;;;6.93;5.23;;;19.90;96.60;;;20.37;63.66;94782.63;5126855;27;20448;-56
2022/06/25 00:42:09;;;;;;;6.97;5.30;;;19.90;96.60;;;20.36;63.39;94765.78;5130436;27;20448;-54
2022/06/25 00:44:36;;;;;;;12.23;4.43;;;19.90;96.60;;;20.36;63.81;94772.97;5127211;27;20451;-56
2022/06/25 00:47:04;;;;;;;5.63;4.70;;;19.90;96.60;;;20.34;63.73;94767.84;5130186;27;20459;-55
2022/06/25 00:49:32;;;;;;;13.53;5.23;;;19.90;96.60;;;20.33;64.00;94766.19;5126584;27;20459;-56
2022/06/25 00:51:59;;;;;;;6.57;4.50;;;19.90;96.80;;;20.32;63.62;94774.41;5130208;27;20444;-56
2022/06/25 00:54:26;;;;;;;8.23;5.23;;;19.90;96.70;;;20.33;63.71;94784.88;5129985;27;20448;-54
2022/06/25 00:56:53;;;;;;;4.53;4.00;;;19.90;97.20;;;20.32;64.15;94791.25;5126347;27;21022;-55
2022/06/25 00:59:27;;;;;;;6.30;5.30;;;19.90;96.90;;;20.32;63.97;94793.91;5129840;27;20451;-55
2022/06/25 01:01:54;;;;;;;7.93;5.23;;;19.90;97.00;;;20.31;64.05;94792.28;5130167;27;21041;-54
2022/06/25 01:04:22;;;;;;;4.70;4.30;;;19.90;97.10;;;20.30;64.31;94782.63;5129741;27;20991;-56
2022/06/25 01:06:49;;;;;;;5.30;4.80;;;19.80;97.00;;;20.28;63.76;94779.34;5129901;27;20476;-56
2022/06/25 01:09:16;;;;;;;9.00;5.20;;;19.80;97.00;;;20.26;64.21;94784.03;5129842;27;20452;-55
2022/06/25 01:11:44;;;;;;;4.90;4.50;;;19.80;97.00;;;20.26;63.89;94786.72;5129337;27;20495;-54
2022/06/25 01:14:11;;;;;;;6.80;4.23;;;19.80;97.10;;;20.25;64.27;94785.09;5129942;27;20475;-55
2022/06/25 01:16:40;;;;;;;6.70;5.27;;;19.80;97.00;;;20.22;63.59;94774.81;5125652;27;20496;-54
2022/06/25 01:19:08;;;;;;;5.23;4.30;;;19.80;96.90;;;20.21;63.90;94775.81;5128353;27;20452;-56
2022/06/25 01:21:36;;;;;;;6.87;4.23;;;19.80;97.00;;;20.19;64.14;94780.53;5124985;27;20468;-56
2022/06/25 01:24:06;;;;;;;4.73;4.40;;;19.70;97.00;;;20.18;63.66;94776.22;5125497;27;20444;-55
2022/06/25 01:26:35;;;;;;;6.70;4.70;;;19.70;97.00;;;20.17;64.04;94783.41;5129169;27;20468;-53
2022/06/25 01:29:03;;;;;;;4.27;3.97;;;19.70;97.10;;;20.17;64.41;94779.91;5129270;27;20484;-55
2022/06/25 01:31:30;;;;;;;6.50;4.37;;;19.70;97.10;;;20.16;64.15;94772.94;5129013;27;20476;-56
2022/06/25 01:33:57;;;;;;;4.50;4.20;;;19.70;97.50;;;20.16;64.25;94772.94;5129416;27;20447;-55
2022/06/25 01:36:25;;;;;;;9.00;4.67;;;19.70;97.20;;;20.17;64.23;94782.56;5129474;27;20885;-55
2022/06/25 01:38:52;;;;;;;5.83;4.50;;;19.70;97.10;;;20.15;64.33;94771.28;5129411;27;20836;-55
2022/06/25 01:41:21;;;;;;;4.57;4.17;;;19.70;97.10;;;20.15;63.70;94784.63;5128843;27;20460;-53
2022/06/25 01:43:48;;;;;;;7.70;5.03;;;19.70;97.00;;;20.12;63.63;94779.69;5128910;27;20452;-55
2022/06/25 01:46:15;;;;;;;12.00;4.30;;;19.70;97.20;;;20.12;63.61;94795.72;5129376;27;21094;-55
2022/06/25 01:48:43;;;;;;;7.90;5.03;;;19.70;97.10;;;20.10;64.27;94787.91;5125361;27;20451;-55
2022/06/25 01:51:10;;;;;;;8.60;5.57;;;19.70;97.10;;;20.08;64.39;94783.78;5129545;27;20476;-55
2022/06/25 01:53:37;;;;;;;5.80;4.90;;;19.60;97.00;;;20.05;64.18;94785.84;5129158;27;20832;-55
2022/06/25 01:56:07;;;;;;;5.13;4.63;;;19.60;97.00;;;20.04;64.39;94778.03;5129245;27;20468;-53
2022/06/25 01:58:36;;;;;;;7.33;4.30;;;19.60;97.20;;;20.01;63.99;94784.59;5128940;27;20455;-54
2022/06/25 02:01:03;;;;;;;7.17;4.53;;;19.60;97.20;;;20.02;64.25;94796.09;5128620;27;20955;-54
2022/06/25 02:03:31;;;;;;;7.10;4.43;;;19.60;97.30;;;19.98;63.97;94806.34;5128617;27;20448;-56
2022/06/25 02:05:58;;;;;;;4.77;4.30;;;19.60;97.20;;;19.94;64.46;94802.44;5128331;27;20473;-55
2022/06/25 02:08:28;;;;;;;4.60;4.30;;;19.50;97.10;;;19.92;63.93;94804.47;5128528;27;20863;-58
2022/06/25 02:10:55;;;;;;;4.33;4.03;;;19.50;97.50;;;19.90;64.27;94806.53;5125733;27;20472;-55
2022/06/25 02:13:22;;;;;;;4.87;4.37;;;19.50;97.20;;;19.88;64.26;94801.38;5128624;27;20773;-55
2022/06/25 02:15:51;;;;;;;4.90;4.40;;;19.40;97.20;;;19.88;64.33;94797.91;5124579;27;20464;-55
2022/06/25 02:18:18;;;;;;;10.70;3.90;;;19.40;97.20;;;19.88;64.17;94800.56;5126788;27;20495;-53
2022/06/25 02:20:46;;;;;;;5.00;4.30;;;19.40;97.20;;;19.86;64.55;94797.25;5125175;27;20472;-55
2022/06/25 02:23:14;;;;;;;4.63;4.30;;;19.40;97.40;;;19.87;64.57;94804.25;5128323;27;20773;-55
2022/06/25 02:25:42;;;;;;;7.00;4.50;;;19.40;97.50;;;19.86;64.48;94802.59;5128042;27;20460;-56
2022/06/25 02:28:09;;;;;;;7.00;4.80;;;19.40;97.70;;;19.87;64.35;94798.91;5128479;27;20455;-57
2022/06/25 02:30:36;;;;;;;7.57;4.27;;;19.40;97.50;;;19.86;64.67;94807.94;5128544;27;20468;-53
2022/06/25 02:33:05;;;;;;;4.77;4.30;;;19.40;97.60;;;19.87;64.79;94821.09;5128271;27;20879;-56
2022/06/25 02:35:33;;;;;;;8.70;5.37;;;19.40;97.50;;;19.88;64.62;94821.94;5124343;27;20468;-53
2022/06/25 02:38:00;;;;;;;10.13;3.80;;;19.40;97.60;;;19.90;63.98;94824.41;5128404;27;20860;-55
2022/06/25 02:40:27;;;;;;;4.57;4.27;;;19.50;97.60;;;19.91;64.15;94813.53;5128001;27;20520;-55
2022/06/25 02:42:55;;;;;;;6.30;4.43;;;19.50;97.60;;;19.94;64.04;94810.44;5128083;27;20444;-55
2022/06/25 02:45:22;;;;;;;4.87;4.43;;;19.50;97.60;;;19.95;64.88;94811.25;5127834;27;20472;-54
2022/06/25 02:47:49;;;;;;;5.77;4.73;;;19.50;97.60;;;19.97;64.43;94810.06;5128444;27;20850;-53
2022/06/25 02:50:18;;;;;;;5.80;5.30;;;19.50;97.70;;;19.98;65.04;94813.53;5124626;27;20472;-54
2022/06/25 02:52:45;;;;;;;4.83;4.43;;;19.60;97.80;;;19.98;65.04;94809.00;5130171;27;20459;-55
2022/06/25 02:55:13;;;;;;;5.60;4.80;;;19.50;97.80;;;19.99;64.74;94800.00;5128926;27;20468;-56
2022/06/25 03:00:24;;;;;;;6.57;5.20;;;19.60;98.00;;;19.95;64.73;94790.72;5122050;27;20979;-55
2022/06/25 03:02:52;;;;;;;9.40;4.10;;;19.50;97.70;;;19.90;64.93;94808.38;5123168;27;20456;-55
2022/06/25 03:05:21;;;;;;;6.43;5.00;;;19.40;97.90;;;19.87;65.07;94810.41;5126437;27;20464;-56
2022/06/25 03:07:49;;;;;;;4.50;4.03;;;19.40;98.30;;;19.91;65.61;94812.69;5126390;27;20447;-53
2022/06/25 03:10:16;;;;;;;8.50;4.77;;;19.50;98.60;;;19.92;65.37;94819.66;5126724;27;20464;-56
2022/06/25 03:12:44;;;;;;;5.07;4.60;;;19.40;98.60;;;19.95;65.62;94824.63;5121019;27;20452;-54
2022/06/25 03:15:12;;;;;;;7.40;5.30;;;19.50;98.70;;;19.98;65.60;94827.69;5129088;27;20463;-54
2022/06/25 03:17:40;;;;;;;8.13;4.53;;;19.50;98.60;;;20.02;65.49;94822.81;5128576;27;20475;-55
2022/06/25 03:20:08;;;;;;;7.10;5.17;;;19.60;98.70;;;20.05;65.91;94814.41;5123309;27;20467;-55
2022/06/25 03:22:37;;;;;;;6.60;4.83;;;19.60;98.80;;;20.08;65.49;94802.47;5120004;27;20495;-54
2022/06/25 03:25:06;;;;;;;6.47;5.80;;;19.60;98.60;;;20.09;65.43;94801.47;5123319;27;20476;-55
2022/06/25 03:27:33;;;;;;;13.60;5.07;;;19.60;98.60;;;20.11;65.65;94812.75;5121787;27;20951;-54
2022/06/25 03:30:01;;;;;;;5.17;4.67;;;19.60;98.70;;;20.13;65.75;94810.72;5121572;27;20459;-53
2022/06/25 03:32:28;;;;;;;7.03;5.90;;;19.60;99.00;;;20.17;65.33;94803.94;5123462;27;20460;-56
2022/06/25 03:34:56;;;;;;;6.80;6.00;;;19.70;98.70;;;20.20;65.52;94803.53;5121133;28;20491;-56
2022/06/25 03:37:26;;;;;;;6.93;6.07;;;19.70;98.70;;;20.22;65.83;94812.19;5127403;28;20496;-55
2022/06/25 03:39:55;;;;;;;5.40;5.00;;;19.70;98.60;;;20.25;65.46;94814.47;5126007;28;20468;-55
2022/06/25 03:42:22;;;;;;;6.20;5.00;;;19.80;98.50;;;20.28;65.90;94815.88;5124064;28;20448;-56
2022/06/25 03:44:49;;;;;;;7.23;5.50;;;19.80;98.70;;;20.34;65.71;94815.94;5129781;28;20464;-54
2022/06/25 03:47:17;;;;;;;14.57;6.53;;;19.80;98.70;;;20.38;65.40;94811.81;5124209;28;20465;-55
2022/06/25 03:49:44;;;;;;;10.20;6.40;;;19.90;98.60;;;20.42;65.35;94802.38;5129043;28;20456;-56
2022/06/25 03:52:12;;;;;;;10.07;6.60;;;20.00;98.60;;;20.46;65.31;94791.28;5127482;28;20441;-57
2022/06/25 03:54:39;;;;;;;8.37;6.33;;;20.00;98.60;;;20.49;64.98;94789.00;5126060;28;20535;-54
2022/06/25 03:57:08;;;;;;;14.47;5.13;;;20.00;98.40;;;20.48;65.13;94782.03;5127639;28;20494;-57
2022/06/25 03:59:35;;;;;;;8.87;6.07;;;20.00;98.40;;;20.45;64.64;94789.63;5125826;28;20455;-56
2022/06/25 04:02:03;;;;;;;19.00;6.13;;;20.00;98.20;;;20.42;65.48;94794.34;5128270;28;20452;-57
2022/06/25 04:04:30;;;;;;;9.00;5.27;;;20.00;98.40;;;20.44;65.63;94801.34;5128026;28;20455;-56
2022/06/25 04:06:57;;;;;;;7.30;5.77;;;19.90;98.80;;;20.46;65.61;94804.63;5128543;28;20475;-56
2022/06/25 04:09:25;;;;;;;15.13;6.57;;;20.00;98.90;;;20.49;65.40;94814.91;5131158;28;20448;-55
2022/06/25 04:11:52;;;;;;;10.87;5.90;;;20.00;98.80;;;20.52;65.87;94811.84;5127475;28;20972;-56
2022/06/25 04:14:21;;;;;;;18.10;5.87;;;20.00;99.10;;;20.57;66.23;94810.22;5127096;27;20654;-56
2022/06/25 04:16:49;;;;;;;9.37;5.80;;;20.10;99.30;;;20.62;66.22;94811.44;5124999;27;20471;-58
2022/06/25 04:19:16;;;;;;;8.10;7.00;;;20.10;99.30;;;20.65;66.36;94821.75;5130072;27;20476;-55
2022/06/25 04:21:47;;;;;;;8.33;6.73;;;20.20;99.40;;;20.68;66.01;94824.84;5130947;27;20537;-55
2022/06/25 04:24:15;;;;;;;6.40;5.80;;;20.20;99.40;;;20.76;66.31;94823.84;5130629;27;20441;-55
2022/06/25 04:26:42;;;;;;;13.33;6.13;;;20.30;99.50;;;20.82;66.23;94811.47;5130776;27;20551;-54
2022/06/25 04:29:08;;;;;;;9.47;5.83;;;20.30;99.60;;;20.89;66.63;94820.34;5130616;27;20984;-55
2022/06/25 04:31:38;;;;;;;6.80;6.10;;;20.40;99.70;;;20.95;66.67;94814.19;5129584;27;20563;-56
2022/06/25 04:34:06;;;;;;;9.13;6.43;;;20.50;99.70;;;21.02;66.55;94823.03;5129987;27;20835;-57
2022/06/25 04:36:33;;;;;;;8.10;6.13;;;20.50;99.60;;;21.08;66.25;94830.19;5129827;27;20865;-53
2022/06/25 04:39:00;;;;;;;8.50;6.90;;;20.60;99.60;;;21.13;66.29;94826.91;5129789;27;21030;-55
2022/06/25 04:41:27;;;;;;;16.83;6.30;;;20.60;99.60;;;21.16;66.00;94834.53;5129990;27;20490;-56
2022/06/25 04:43:55;;;;;;;6.90;6.17;;;20.70;99.40;;;21.22;65.80;94838.22;5130078;27;20546;-53
2022/06/25 04:46:22;;;;;;;6.43;5.83;;;20.70;99.20;;;21.25;65.53;94830.59;5129516;27;20464;-56
2022/06/25 04:48:51;;;;;;;19.83;6.63;;;20.70;99.00;;;21.30;65.34;94827.31;5129418;27;20441;-56
2022/06/25 04:51:18;;;;;;;9.73;5.90;;;20.80;98.90;;;21.36;65.11;94831.81;5128456;27;21055;-57
2022/06/25 04:53:57;;;;;;;10.30;6.50;;;20.90;98.80;;;21.43;64.98;94834.50;5130429;27;20448;-53
2022/06/25 04:56:25;;;;;;;6.10;5.27;;;20.90;98.70;;;21.46;65.07;94837.59;5129029;27;20504;-55
2022/06/25 04:58:52;;;;;;;9.00;6.17;;;21.00;98.80;;;21.50;65.02;94832.66;5129474;27;20602;-55
2022/06/25 05:01:20;;;;;;;7.70;5.70;;;21.00;98.80;;;21.53;65.12;94840.28;5129725;27;20893;-56
2022/06/25 05:03:47;;;;;;;8.83;7.00;;;21.00;99.10;;;21.56;65.35;94825.66;5128185;27;20928;-55
2022/06/25 05:06:16;;;;;;;13.33;6.30;;;21.00;99.00;;;21.57;65.35;94833.47;5129713;27;20475;-53
2022/06/25 05:08:43;;;;;;;7.10;6.47;;;21.10;98.90;;;21.62;65.48;94832.84;5128821;27;20468;-57
2022/06/25 05:11:10;;;;;;;9.17;6.47;;;21.10;99.00;;;21.67;65.28;94841.06;5129439;27;20464;-57
2022/06/25 05:13:38;;;;;;;9.57;7.20;;;21.10;98.90;;;21.75;64.96;94842.69;5129387;27;21102;-56
2022/06/25 05:16:05;;;;;;;9.90;7.10;;;21.20;98.90;;;21.81;64.83;94837.34;5121547;27;20999;-57
2022/06/25 05:18:33;;;;;;;10.80;7.27;;;21.30;98.80;;;21.91;65.00;94838.75;5126250;27;20870;-55
2022/06/25 05:21:01;;;;;;;13.77;6.90;;;21.40;98.80;;;22.02;64.86;94843.44;5128161;27;20471;-54
2022/06/25 05:23:30;;;;;;;10.30;7.27;;;21.50;98.70;;;22.11;64.33;94842.19;5129300;27;20479;-55
2022/06/25 05:25:57;;;;;;;25.03;7.20;;;21.60;98.50;;;22.24;64.35;94851.19;5128892;27;20472;-56
2022/06/25 05:28:24;;;;;;;13.53;6.47;;;21.70;98.40;;;22.35;63.79;94845.19;5128875;27;20829;-55
2022/06/25 05:30:52;;;;;;;15.87;7.50;;;21.80;98.30;;;22.44;63.85;94840.41;5129022;27;20996;-56
2022/06/25 05:33:19;;;;;;;10.20;7.53;;;21.90;98.00;;;22.54;63.87;94841.59;5127532;27;20840;-56
2022/06/25 05:35:46;;;;;;;7.93;6.67;;;22.00;98.10;;;22.65;63.55;94841.94;5128367;27;20468;-53
2022/06/25 05:38:14;;;;;;;10.13;7.70;;;22.10;97.60;;;22.71;62.65;94835.69;5127644;27;20849;-56
2022/06/25 05:40:42;;;;;;;7.63;6.83;;;22.20;97.50;;;22.77;62.62;94832.16;5121834;27;20506;-56
2022/06/25 05:43:10;;;;;;;13.03;6.07;;;22.20;97.10;;;22.89;62.46;94838.47;5124660;27;20448;-55
2022/06/25 05:45:37;;;;;;;10.97;7.30;;;22.30;97.10;;;23.04;61.67;94840.84;5124662;27;20460;-57
2022/06/25 05:48:04;;;;;;;9.43;6.53;;;22.40;97.00;;;23.22;61.84;94842.81;5127966;27;20444;-54
2022/06/25 05:50:32;;;;;;;9.47;6.27;;;22.60;96.70;;;23.39;60.83;94836.84;5127330;27;20472;-53
2022/06/25 05:52:59;;;;;;;6.23;5.73;;;22.80;96.50;;;23.58;61.02;94845.78;5122684;27;20493;-56
2022/06/25 05:55:27;;;;;;;8.07;6.37;;;22.90;96.10;;;23.73;60.07;94840.84;5122964;27;20481;-56
2022/06/25 05:57:55;;;;;;;6.53;5.50;;;23.10;95.80;;;23.91;59.45;94850.81;5125463;27;20507;-58
2022/06/25 06:00:23;;;;;;;9.50;6.77;;;23.30;95.40;;;24.06;59.33;94846.94;5122047;27;20476;-55
2022/06/25 06:02:50;;;;;;;8.60;6.40;;;23.40;94.80;;;24.22;58.19;94853.59;5119033;27;20468;-55
2022/06/25 06:05:17;;;;;;;14.80;7.00;;;23.60;94.50;;;24.37;58.47;94847.81;5119945;27;20469;-55
2022/06/25 06:07:45;;;;;;;7.73;6.70;;;23.70;94.20;;;24.50;57.81;94843.06;5120983;27;20452;-55
2022/06/25 06:10:12;;;;;;;7.73;7.03;;;23.90;93.70;;;24.51;56.56;94842.03;5118300;27;20479;-55
2022/06/25 06:12:39;;;;;;;11.87;6.40;;;23.90;92.90;;;24.42;56.92;94850.66;5119946;27;20614;-57
2022/06/25 06:15:10;;;;;;;9.00;6.00;;;23.90;92.70;;;24.40;57.06;94855.41;5119515;27;20481;-55
2022/06/25 06:17:37;;;;;;;5.70;5.23;;;23.90;92.70;;;24.46;56.72;94851.81;5120153;27;20483;-53
2022/06/25 06:20:06;;;;;;;9.00;5.80;;;23.90;92.70;;;24.56;56.89;94845.94;5120433;27;20554;-55
2022/06/25 06:22:33;;;;;;;11.60;5.60;;;24.00;92.60;;;24.71;56.58;94851.75;5121208;27;20472;-55
2022/06/25 06:25:01;;;;;;;14.57;6.20;;;24.00;92.30;;;24.88;56.45;94850.03;5122917;27;20476;-55
2022/06/25 06:27:28;;;;;;;17.70;6.47;;;24.20;92.30;;;25.10;56.03;94840.59;5122311;27;20456;-57
2022/06/25 06:29:55;;;;;;;15.77;6.40;;;24.40;92.20;;;25.22;55.34;94844.97;5119080;27;20475;-58
2022/06/25 06:32:24;;;;;;;9.90;6.57;;;24.60;91.80;;;25.28;54.96;94837.81;5117235;27;20460;-54
2022/06/25 06:34:51;;;;;;;10.97;6.00;;;24.70;91.40;;;25.37;55.04;94841.81;5115340;27;20479;-55
2022/06/25 06:37:18;;;;;;;11.70;6.80;;;24.70;91.40;;;25.49;54.50;94841.03;5117103;27;20448;-54
2022/06/25 06:39:46;;;;;;;13.93;6.67;;;24.80;91.00;;;25.50;54.13;94839.97;5129190;27;20490;-55
2022/06/25 06:42:13;;;;;;;8.80;7.07;;;24.80;90.60;;;25.59;54.16;94841.25;5122598;27;20840;-54
2022/06/25 06:44:41;;;;;;;10.57;6.57;;;24.90;90.70;;;25.71;54.07;94842.06;5124619;27;20503;-56
2022/06/25 06:47:08;;;;;;;11.40;7.37;;;25.10;90.60;;;25.77;52.77;94840.31;5123868;27;20501;-56
2022/06/25 06:49:38;;;;;;;18.57;6.80;;;25.10;89.10;;;25.76;53.82;94854.84;5122968;27;20455;-54
2022/06/25 06:52:06;;;;;;;11.00;6.53;;;25.10;89.60;;;25.83;53.06;94852.03;5124216;27;20459;-56
2022/06/25 06:54:33;;;;;;;9.70;5.87;;;25.20;89.30;;;25.88;52.59;94850.25;5125291;27;20875;-56
2022/06/25 06:57:00;;;;;;;11.47;6.80;;;25.20;87.90;;;25.90;52.48;94844.63;5125300;27;20467;-56
2022/06/25 06:59:28;;;;;;;10.60;6.47;;;25.30;87.70;;;25.92;52.84;94854.13;5114391;27;20479;-56
2022/06/25 07:01:55;;;;;;;11.30;6.13;;;25.30;88.10;;;26.00;52.81;94849.47;5126611;27;20447;-56
2022/06/25 07:04:22;;;;;;;10.50;5.93;;;25.40;87.80;;;26.16;52.59;94843.31;5123723;27;20461;-55
2022/06/25 07:06:51;;;;;;;11.73;5.50;;;25.50;87.40;;;26.36;51.93;94839.41;5122427;27;20528;-56
2022/06/25 07:09:18;;;;;;;14.43;6.70;;;25.70;86.30;;;26.51;51.54;94839.72;5120305;27;20453;-56
2022/06/25 07:11:46;;;;;;;10.00;4.70;;;25.80;85.80;;;26.67;51.54;94842.72;5121085;27;20477;-55
2022/06/25 07:14:13;;;;;;;8.00;5.50;;;25.90;85.80;;;26.76;50.99;94830.50;5118161;27;20520;-56
2022/06/25 07:16:41;;;;;;;5.83;5.30;;;26.10;84.70;;;26.85;50.59;94845.22;5124055;27;20892;-53
2022/06/25 07:19:10;;;;;;;10.20;5.00;;;26.10;83.80;;;26.95;50.48;94839.19;5123303;27;22503;-56
2022/06/25 07:21:37;;;;;;;7.83;5.30;;;26.20;83.30;;;27.06;50.30;94830.19;5123692;27;20504;-56
2022/06/25 07:24:07;;;;;;;5.83;5.30;;;26.30;82.80;;;27.25;50.09;94833.50;5123046;27;20464;-55
2022/06/25 07:26:35;;;;;;;10.13;5.87;;;26.50;82.90;;;27.40;49.63;94827.53;5120863;27;20484;-55
2022/06/25 07:29:02;;;;;;;6.37;5.73;;;26.70;82.20;;;27.46;49.21;94840.03;5122870;27;20456;-56
2022/06/25 07:31:30;;;;;;;9.07;5.53;;;26.70;80.80;;;27.51;49.36;94836.59;5121738;27;21029;-56
2022/06/25 07:33:57;;;;;;;17.60;5.33;;;26.80;80.00;;;27.70;49.08;94831.75;5121430;27;20448;-56
2022/06/25 07:36:24;;;;;;;6.07;5.07;;;27.00;80.20;;;27.94;48.91;94836.94;5119758;27;21055;-54
2022/06/25 07:38:52;;;;;;;18.60;5.40;;;27.20;80.30;;;28.20;49.19;94832.72;5120720;28;20483;-56
2022/06/25 07:41:20;;;;;;;8.13;5.73;;;27.40;80.10;;;28.47;48.77;94835.47;5114951;28;20557;-56
2022/06/25 07:43:48;;;;;;;8.00;5.60;;;27.60;79.30;;;28.73;48.63;94843.91;5123303;28;20448;-57
2022/06/25 07:46:15;;;;;;;15.03;6.37;;;27.90;78.70;;;28.95;47.59;94844.69;5122292;27;20832;-55
2022/06/25 07:48:44;;;;;;;16.47;6.00;;;28.10;77.00;;;29.03;46.82;94850.69;5127224;27;20452;-55
2022/06/25 07:53:57;;;;;;;12.87;5.83;;;28.30;74.60;;;29.09;46.52;94845.06;5127529;27;20438;-55
2022/06/25 07:56:26;;;;;;;11.23;6.50;;;28.40;74.20;;;29.23;46.66;94839.25;5127990;27;20483;-54
2022/06/25 07:58:53;;;;;;;9.23;6.50;;;28.50;74.50;;;29.33;47.06;94833.94;5121404;27;21029;-56
2022/06/25 08:01:20;;;;;;;14.97;6.47;;;28.60;74.60;;;29.49;47.17;94845.69;5121219;27;20471;-54
2022/06/25 08:03:48;;;;;;;10.57;6.40;;;28.70;73.80;;;29.69;46.17;94843.13;5122657;27;20967;-55
2022/06/25 08:06:15;;;;;;;23.00;9.07;;;28.90;73.00;;;29.93;46.05;94840.06;5120494;27;20850;-57
2022/06/25 08:08:42;;;;;;;17.30;7.40;;;29.10;72.40;;;30.18;46.21;94839.38;5126087;27;20451;-55
2022/06/25 08:11:10;;;;;;;21.37;7.10;;;29.40;71.70;;;30.47;45.66;94851.72;5126175;27;20562;-56
2022/06/25 08:13:38;;;;;;;21.83;5.97;;;29.70;71.30;;;30.78;45.67;94844.50;5130049;27;20198;-52
2022/06/25 08:16:09;;;;;;;20.40;6.53;;;30.00;70.60;;;31.05;44.12;94840.78;5126864;27;20487;-56
2022/06/25 08:18:36;;;;;;;14.03;6.37;;;30.30;69.30;;;31.17;43.88;94843.22;5118853;27;20232;-55
2022/06/25 08:21:04;;;;;;;11.43;6.00;;;30.40;67.50;;;31.31;43.76;94832.66;5129567;27;20707;-53
2022/06/25 08:23:31;;;;;;;9.47;5.77;;;30.60;67.20;;;31.55;43.51;94822.06;5129293;27;20643;-54
2022/06/25 08:25:58;;;;;;;10.90;7.33;;;30.70;66.30;;;31.81;43.40;94826.38;5126612;27;20237;-54
2022/06/25 08:28:26;;;;;;;8.17;6.10;;;31.00;65.60;;;32.08;43.13;94829.84;5130327;27;20682;-56
2022/06/25 08:30:54;;;;;;;10.27;6.50;;;31.30;65.30;;;32.33;42.38;94834.41;5126561;27;20251;-55
2022/06/25 08:33:22;;;;;;;10.80;7.27;;;31.50;63.50;;;32.44;41.89;94827.84;5129582;27;20213;-54
2022/06/25 08:35:49;;;;;;;6.63;6.10;;;31.70;62.50;;;32.50;42.02;94829.47;5129399;27;20267;-55
2022/06/25 08:38:18;;;;;;;9.60;6.23;;;31.80;62.10;;;32.67;41.97;94831.03;5130121;27;20283;-55
2022/06/25 08:40:45;;;;;;;7.33;6.07;;;31.90;62.40;;;32.88;41.85;94831.72;5125915;27;20278;-55
2022/06/25 08:43:12;;;;;;;16.52;6.80;;;32.10;61.70;;;33.07;41.09;94840.06;5126229;27;20209;-55
2022/06/25 08:45:40;;;;;;;12.15;6.70;;;32.30;60.50;;;33.30;40.82;94843.19;5129647;27;20713;-54
2022/06/25 08:48:11;;;;;;;6.97;6.15;;;32.50;60.20;;;33.55;40.96;94839.44;5129464;27;20204;-55
2022/06/25 08:50:38;;;;;;;10.02;5.72;;;32.70;59.40;;;33.79;40.53;94842.28;5129519;27;20234;-55
2022/06/25 08:53:06;;;;;;;10.93;6.40;;;33.00;58.60;;;34.00;39.98;94836.59;5126105;27;20226;-55
2022/06/25 08:55:34;;;;;;;10.52;6.65;;;33.20;57.90;;;34.01;39.04;94844.50;5123527;27;20229;-56
2022/06/25 08:58:01;;;;;;;9.80;6.55;;;33.30;55.60;;;33.94;38.94;94836.66;5124335;27;20554;-55
2022/06/25 09:00:29;;;;;;;6.32;5.40;;;33.30;55.60;;;33.98;38.67;94841.53;5127265;27;20779;-56
2022/06/25 09:02:56;;;;;;;30.27;6.30;;;33.20;55.90;;;34.11;39.10;94847.13;5118414;27;20199;-54
2022/06/25 09:05:27;;;;;;;10.52;6.88;;;33.30;55.90;;;34.27;38.44;94853.25;5124868;27;20701;-54
2022/06/25 09:07:55;;;;;;;10.75;6.07;;;33.50;55.40;;;34.29;37.45;94852.97;5128102;27;20625;-55
2022/06/25 09:10:24;;;;;;;12.82;7.00;;;33.50;54.10;;;34.32;37.44;94846.09;5121110;27;20230;-55
2022/06/25 09:12:52;;;;;;;7.32;6.38;;;33.50;53.90;;;34.44;38.04;94843.75;5124441;27;20609;-55
2022/06/25 09:15:20;;;;;;;9.25;6.90;;;33.70;53.90;;;34.59;37.90;94845.50;5127320;27;20302;-57
2022/06/25 09:17:49;;;;;;;7.93;5.95;;;33.80;53.80;;;34.76;37.63;94847.75;5126528;27;20198;-55
2022/06/25 09:20:16;;;;;;;9.05;6.10;;;34.00;53.30;;;34.81;37.43;94843.06;5121977;27;20234;-56
2022/06/25 09:22:56;;;;;;;10.73;6.57;;;34.00;53.80;;;34.78;38.42;94853.75;5124799;27;20577;-55
2022/06/25 09:25:27;;;;;;;13.40;7.68;;;34.00;54.10;;;34.59;37.57;94842.75;5122372;27;20222;-55
2022/06/25 09:27:55;;;;;;;10.18;7.60;;;33.90;53.90;;;34.39;38.29;94846.56;5124847;27;20202;-54
2022/06/25 09:30:22;;;;;;;11.85;7.82;;;33.80;54.40;;;34.17;39.18;94845.13;5123307;27;20275;-54
2022/06/25 09:32:51;;;;;;;8.40;6.85;;;33.60;54.90;;;34.01;39.59;94849.16;5127619;27;20741;-55
2022/06/25 09:35:34;;;;;;;16.27;8.57;;;33.40;55.10;;;33.83;39.25;94847.97;5121387;27;20218;-55
2022/06/25 09:38:12;;;;;;;8.93;8.02;;;33.30;55.00;;;33.60;40.78;94844.84;5123918;27;20191;-55
2022/06/25 09:40:40;;;;;;;10.35;7.90;;;33.00;56.60;;;33.44;40.50;94854.28;5126184;27;20233;-53
2022/06/25 09:43:15;;;;;;;13.07;9.45;;;32.80;56.80;;;33.23;41.39;94844.34;5124873;27;20202;-55
2022/06/25 09:45:44;;;;;;;27.23;9.07;;;32.60;57.70;;;33.03;41.66;94833.53;5124927;27;20225;-55
2022/06/25 09:48:18;;;;;;;14.85;7.95;;;32.50;57.60;;;32.83;41.91;94835.31;5128470;27;20277;-56
2022/06/25 09:50:45;;;;;;;14.45;9.55;;;32.20;58.00;;;32.69;42.14;94837.03;5129517;27;20257;-55
2022/06/25 09:53:14;;;;;;;17.25;9.30;;;32.10;57.80;;;32.62;42.08;94828.31;5129136;27;20224;-54
2022/06/25 09:55:41;;;;;;;15.70;8.43;;;32.00;58.70;;;32.57;42.25;94829.16;5128956;27;20226;-56
2022/06/25 09:58:09;;;;;;;8.55;7.45;;;31.90;58.30;;;32.55;42.12;94833.22;5128731;27;20226;-54
2022/06/25 10:00:36;;;;;;;12.68;9.45;;;31.90;58.30;;;32.51;41.98;94817.47;5128499;27;20279;-54
2022/06/25 10:03:03;;;;;;;12.68;7.95;;;31.90;58.00;;;32.50;41.64;94815.00;5127747;27;20247;-55
2022/06/25 10:05:36;;;;;;;10.20;7.90;;;31.80;57.60;;;32.48;41.49;94822.66;5129038;27;20572;-54
2022/06/25 10:08:07;;;;;;;9.07;7.22;;;31.80;57.50;;;32.42;41.26;94819.13;5128799;27;20198;-55
2022/06/25 10:10:40;;;;;;;15.05;8.73;;;31.80;57.20;;;32.40;41.33;94815.88;5128487;27;20221;-56
2022/06/25 10:13:07;;;;;;;16.85;8.95;;;31.80;58.10;;;32.36;41.47;94809.34;5127564;27;20221;-55
2022/06/25 10:15:35;;;;;;;16.48;8.13;;;31.70;57.50;;;32.37;41.47;94808.28;5128285;27;20210;-54
2022/06/25 10:18:04;;;;;;;12.02;7.97;;;31.70;57.40;;;32.35;41.30;94821.34;5128145;27;20593;-55
2022/06/25 10:20:32;;;;;;;10.50;7.47;;;31.70;57.40;;;32.34;41.92;94817.00;5125053;27;20230;-56
2022/06/25 10:23:00;;;;;;;16.17;7.72;;;31.70;57.80;;;32.36;41.61;94814.81;5128385;27;20230;-55
2022/06/25 10:25:28;;;;;;;9.50;8.27;;;31.70;58.00;;;32.35;41.34;94807.75;5128314;27;20244;-53
2022/06/25 10:28:10;;;;;;;9.52;7.80;;;31.60;57.30;;;32.37;41.26;94797.38;5128348;27;20221;-55
2022/06/25 10:30:48;;;;;;;13.48;7.15;;;31.70;57.40;;;32.42;41.38;94797.34;5125463;27;20729;-57